Time;durP1;ratioP1;P1;durP2;ratioP2;P2;SDS_P1;SDS_P2;PMS_P1;PMS_P2;Temp;Humidity;BMP_temperature;BMP_pressure;BME280_temperature;BME280_humidity;BME280_pressure;Samples;Min_cycle;Max_cycle;Signal;HPM_P1;HPM_P2
2023/12/10 00:01:24;;;;;;;7.43;1.90;;;9.70;98.00;;;;;;5034804;28;20454;-66
2023/12/10 00:03:51;;;;;;;6.60;2.03;;;9.70;98.00;;;;;;5034715;28;20538;-66
2023/12/10 00:06:20;;;;;;;9.07;2.40;;;9.60;98.00;;;;;;5034643;28;20456;-67
2023/12/10 00:08:47;;;;;;;2.50;1.63;;;9.60;98.00;;;;;;5034648;28;20485;-66
2023/12/10 00:11:14;;;;;;;4.40;2.20;;;9.60;98.00;;;;;;5034779;28;20544;-66
2023/12/10 00:13:42;;;;;;;6.83;2.20;;;9.50;98.00;;;;;;5034520;28;20453;-66
2023/12/10 00:16:09;;;;;;;8.77;2.13;;;9.50;98.00;;;;;;5034666;28;20511;-67
2023/12/10 00:18:36;;;;;;;6.20;2.23;;;9.50;98.00;;;;;;5033126;28;20487;-66
2023/12/10 00:21:05;;;;;;;4.60;1.90;;;9.50;98.00;;;;;;5033478;28;20463;-67
2023/12/10 00:23:34;;;;;;;9.53;2.97;;;9.40;98.00;;;;;;5033600;28;20458;-66
2023/12/10 00:26:01;;;;;;;6.93;1.97;;;9.50;98.00;;;;;;5034476;28;20502;-66
2023/12/10 00:28:29;;;;;;;6.13;2.00;;;9.50;98.00;;;;;;5034542;28;20489;-66
2023/12/10 00:30:56;;;;;;;7.40;1.90;;;9.50;98.00;;;;;;5034548;28;20459;-66
2023/12/10 00:33:24;;;;;;;15.17;1.87;;;9.50;98.00;;;;;;5034451;28;20454;-67
2023/12/10 00:35:51;;;;;;;8.53;2.03;;;9.50;98.00;;;;;;5034437;28;20462;-67
2023/12/10 00:38:18;;;;;;;3.90;1.83;;;9.40;98.00;;;;;;5016620;28;20865;-67
2023/12/10 00:40:47;;;;;;;7.83;2.17;;;9.40;98.00;;;;;;5034168;28;20449;-66
2023/12/10 00:43:16;;;;;;;6.17;2.30;;;9.40;98.00;;;;;;5034291;28;20843;-66
2023/12/10 00:45:43;;;;;;;10.67;2.17;;;9.40;98.00;;;;;;5032696;28;20534;-67
2023/12/10 00:48:12;;;;;;;3.33;1.50;;;9.40;98.00;;;;;;5033409;28;20490;-66
2023/12/10 00:50:39;;;;;;;8.70;2.10;;;9.50;98.00;;;;;;5033280;28;20508;-67
2023/12/10 00:53:06;;;;;;;4.80;1.60;;;9.50;98.00;;;;;;5033418;28;20454;-67
2023/12/10 00:55:34;;;;;;;4.40;1.73;;;9.50;98.00;;;;;;5034122;28;20458;-67
2023/12/10 00:58:02;;;;;;;3.67;2.10;;;9.50;98.00;;;;;;5033912;28;20466;-66
2023/12/10 01:00:30;;;;;;;11.47;1.90;;;9.60;98.00;;;;;;5033492;28;20463;-66
2023/12/10 01:02:57;;;;;;;9.43;2.20;;;9.50;98.00;;;;;;5032600;28;20545;-66
2023/12/10 01:05:24;;;;;;;11.13;2.37;;;9.50;98.00;;;;;;5033430;28;20453;-66
2023/12/10 01:07:51;;;;;;;7.13;2.50;;;9.50;98.00;;;;;;5032411;28;20458;-66
2023/12/10 01:10:19;;;;;;;6.27;2.00;;;9.50;98.00;;;;;;5033637;28;20835;-67
2023/12/10 01:12:46;;;;;;;10.53;2.43;;;9.50;98.00;;;;;;5033423;28;20543;-66
2023/12/10 01:15:16;;;;;;;7.73;2.10;;;9.40;98.00;;;;;;5033251;28;20939;-67
2023/12/10 01:17:43;;;;;;;8.13;2.40;;;9.40;98.00;;;;;;5033543;28;20859;-66
2023/12/10 01:20:11;;;;;;;3.33;2.13;;;9.40;98.00;;;;;;5033439;28;20454;-67
2023/12/10 01:22:38;;;;;;;13.57;2.43;;;9.40;98.00;;;;;;5033197;28;20469;-66
2023/12/10 01:25:07;;;;;;;7.13;1.90;;;9.50;98.00;;;;;;5033257;28;20458;-66
2023/12/10 01:27:35;;;;;;;6.90;2.13;;;9.50;98.00;;;;;;5033156;28;20844;-66
2023/12/10 01:30:02;;;;;;;5.10;2.50;;;9.50;98.00;;;;;;5033314;28;20482;-66
2023/12/10 01:32:31;;;;;;;12.03;2.10;;;9.50;98.00;;;;;;5032884;28;20977;-66
2023/12/10 01:35:01;;;;;;;7.20;2.20;;;9.50;98.00;;;;;;5032933;28;20458;-67
2023/12/10 01:37:28;;;;;;;5.47;2.10;;;9.50;98.00;;;;;;5033000;28;20462;-66
2023/12/10 01:39:58;;;;;;;10.57;2.43;;;9.50;98.00;;;;;;5033309;28;20459;-66
2023/12/10 01:42:25;;;;;;;13.43;2.40;;;9.50;98.00;;;;;;5032608;28;20969;-67
2023/12/10 01:44:52;;;;;;;14.60;2.00;;;9.50;98.00;;;;;;5033200;28;20461;-66
2023/12/10 01:47:20;;;;;;;9.37;2.10;;;9.60;98.00;;;;;;5032719;28;20458;-66
2023/12/10 01:49:49;;;;;;;4.67;1.97;;;9.60;98.00;;;;;;5032723;28;20494;-66
2023/12/10 01:52:16;;;;;;;11.27;2.70;;;9.60;98.00;;;;;;5032687;28;20457;-66
2023/12/10 01:54:43;;;;;;;7.97;2.60;;;9.50;98.00;;;;;;5032676;28;20810;-66
2023/12/10 01:57:13;;;;;;;7.37;2.73;;;9.60;98.00;;;;;;5032167;28;20455;-66
2023/12/10 01:59:40;;;;;;;10.30;2.10;;;9.50;98.00;;;;;;5032493;28;20447;-66
2023/12/10 02:02:07;;;;;;;10.60;3.00;;;9.50;98.00;;;;;;5032449;28;20486;-66
2023/12/10 02:04:34;;;;;;;13.07;2.57;;;9.60;98.00;;;;;;5032651;28;20459;-66
2023/12/10 02:07:03;;;;;;;17.50;2.57;;;9.60;98.00;;;;;;5032327;28;20458;-66
2023/12/10 02:09:30;;;;;;;12.90;2.23;;;9.60;98.00;;;;;;5032484;28;20496;-66
2023/12/10 02:11:57;;;;;;;24.20;2.60;;;9.60;98.00;;;;;;5032265;28;20456;-66
2023/12/10 02:14:25;;;;;;;8.10;2.20;;;9.60;98.00;;;;;;5032387;28;20458;-66
2023/12/10 02:16:52;;;;;;;6.60;2.30;;;9.60;98.00;;;;;;5032417;28;20453;-66
2023/12/10 02:19:19;;;;;;;10.00;2.60;;;9.60;98.00;;;;;;5032403;28;20959;-66
2023/12/10 02:21:53;;;;;;;22.57;3.27;;;9.60;98.00;;;;;;5032208;28;20955;-66
2023/12/10 02:24:27;;;;;;;8.60;2.50;;;9.70;98.00;;;;;;5031591;28;20528;-67
2023/12/10 02:26:56;;;;;;;5.90;2.40;;;9.70;98.00;;;;;;5032230;28;20459;-66
2023/12/10 02:29:24;;;;;;;9.33;2.53;;;9.70;98.00;;;;;;5032250;28;20487;-66
2023/12/10 02:31:51;;;;;;;13.53;3.13;;;9.80;98.00;;;;;;5032467;28;20495;-66
2023/12/10 02:34:18;;;;;;;7.87;2.30;;;9.70;98.00;;;;;;5032367;28;20461;-66
2023/12/10 02:36:46;;;;;;;5.93;2.23;;;9.70;98.00;;;;;;5031942;28;20485;-66
2023/12/10 02:39:14;;;;;;;7.40;2.07;;;9.70;98.00;;;;;;5032133;28;20487;-67
2023/12/10 02:41:42;;;;;;;12.50;2.53;;;9.70;98.00;;;;;;5032175;28;20459;-66
2023/12/10 02:44:11;;;;;;;7.17;2.70;;;9.70;98.00;;;;;;5032273;28;20469;-66
2023/12/10 02:46:38;;;;;;;12.93;2.90;;;9.70;98.00;;;;;;5032392;28;20955;-67
2023/12/10 02:49:05;;;;;;;14.30;2.80;;;9.70;98.00;;;;;;5031978;28;20487;-66
2023/12/10 02:51:32;;;;;;;13.63;2.47;;;9.60;98.00;;;;;;5032070;28;20455;-66
2023/12/10 02:53:59;;;;;;;11.87;2.67;;;9.60;98.00;;;;;;5032089;28;20446;-66
2023/12/10 02:56:26;;;;;;;11.47;2.70;;;9.60;98.00;;;;;;5031517;28;20462;-66
2023/12/10 02:58:54;;;;;;;10.93;2.60;;;9.50;98.00;;;;;;5031720;28;20462;-66
2023/12/10 03:01:23;;;;;;;7.97;2.33;;;9.50;98.00;;;;;;5014346;28;20457;-67
2023/12/10 03:03:51;;;;;;;13.27;2.80;;;9.40;98.00;;;;;;5031754;28;20501;-67
2023/12/10 03:06:18;;;;;;;10.83;2.00;;;9.30;98.00;;;;;;5031698;28;20457;-66
2023/12/10 03:08:45;;;;;;;13.07;4.13;;;9.20;98.00;;;;;;5032344;28;20451;-66
2023/12/10 03:11:12;;;;;;;6.37;2.90;;;9.10;98.00;;;;;;5035741;28;20446;-66
2023/12/10 03:13:39;;;;;;;10.17;2.57;;;9.00;98.00;;;;;;5035728;28;20468;-66
2023/12/10 03:16:07;;;;;;;10.43;2.00;;;9.00;98.00;;;;;;5035444;28;20456;-66
2023/12/10 03:18:36;;;;;;;7.17;1.90;;;8.90;98.00;;;;;;5034416;28;20468;-66
2023/12/10 03:21:05;;;;;;;6.37;1.83;;;8.80;98.00;;;;;;5035568;28;20463;-67
2023/12/10 03:23:32;;;;;;;2.80;1.67;;;8.80;98.00;;;;;;5035482;28;20455;-66
2023/12/10 03:25:59;;;;;;;2.60;1.50;;;8.80;98.00;;;;;;5035546;28;20465;-66
2023/12/10 03:28:26;;;;;;;2.77;1.60;;;8.70;98.00;;;;;;5035538;28;20463;-66
2023/12/10 03:30:54;;;;;;;3.87;1.67;;;8.70;98.00;;;;;;5034276;28;20486;-66
2023/12/10 03:33:21;;;;;;;5.80;2.00;;;8.70;98.00;;;;;;5035402;28;20457;-66
2023/12/10 03:35:49;;;;;;;3.17;1.60;;;8.70;98.00;;;;;;5035265;28;20467;-66
2023/12/10 03:38:16;;;;;;;5.20;1.73;;;8.60;98.00;;;;;;5035408;28;20462;-67
2023/12/10 03:40:44;;;;;;;5.90;1.73;;;8.50;98.00;;;;;;5034855;28;20456;-66
2023/12/10 03:43:11;;;;;;;9.83;2.40;;;8.50;98.00;;;;;;5035061;28;20449;-66
2023/12/10 03:45:38;;;;;;;7.73;1.70;;;8.50;98.00;;;;;;5035102;28;20458;-65
2023/12/10 03:48:06;;;;;;;4.90;1.70;;;8.50;98.00;;;;;;5035192;28;20466;-66
2023/12/10 03:50:33;;;;;;;3.03;1.70;;;8.60;98.00;;;;;;5034898;28;20482;-66
2023/12/10 03:53:02;;;;;;;4.13;2.10;;;8.50;98.00;;;;;;5035090;28;20459;-66
2023/12/10 03:55:29;;;;;;;4.63;1.80;;;8.50;98.00;;;;;;5035122;28;20449;-66
2023/12/10 03:57:56;;;;;;;4.70;1.53;;;8.50;98.00;;;;;;5034921;28;20814;-66
2023/12/10 04:00:23;;;;;;;7.43;2.00;;;8.50;98.00;;;;;;5033973;28;20453;-66
2023/12/10 04:02:50;;;;;;;5.47;1.90;;;8.50;98.00;;;;;;5034656;28;20936;-66
2023/12/10 04:05:18;;;;;;;4.67;1.77;;;8.60;98.00;;;;;;5035165;28;20453;-66
2023/12/10 04:07:47;;;;;;;5.27;2.10;;;8.60;98.00;;;;;;5034731;28;20453;-66
2023/12/10 04:10:16;;;;;;;4.77;1.80;;;8.50;98.00;;;;;;5034792;28;20485;-66
2023/12/10 04:12:43;;;;;;;5.53;2.30;;;8.50;98.00;;;;;;5034665;28;20453;-66
2023/12/10 04:15:11;;;;;;;4.13;1.90;;;8.50;98.00;;;;;;5034747;28;20464;-66
2023/12/10 04:17:42;;;;;;;4.97;1.97;;;8.50;98.00;;;;;;5034475;28;20469;-66
2023/12/10 04:20:11;;;;;;;6.30;1.50;;;8.50;98.00;;;;;;5034296;28;20465;-66
2023/12/10 04:22:38;;;;;;;3.03;1.60;;;8.50;98.00;;;;;;5033544;28;20805;-66
2023/12/10 04:25:06;;;;;;;5.23;2.20;;;8.60;98.00;;;;;;5033465;28;20818;-67
2023/12/10 04:27:35;;;;;;;7.03;1.83;;;8.60;98.00;;;;;;5034461;28;20951;-66
2023/12/10 04:30:03;;;;;;;8.57;1.83;;;8.60;98.00;;;;;;5034568;28;20490;-66
2023/12/10 04:32:31;;;;;;;5.10;1.77;;;8.60;98.00;;;;;;5034510;28;20465;-66
2023/12/10 04:34:58;;;;;;;3.63;1.70;;;8.60;98.00;;;;;;5034631;28;20454;-66
2023/12/10 04:37:25;;;;;;;7.53;1.70;;;8.60;98.00;;;;;;5034168;28;20498;-66
2023/12/10 04:39:53;;;;;;;6.07;2.03;;;8.60;98.00;;;;;;5034144;28;20465;-65
2023/12/10 04:42:20;;;;;;;5.73;1.90;;;8.60;98.00;;;;;;5034131;28;20544;-66
2023/12/10 04:44:49;;;;;;;9.70;1.80;;;8.60;98.00;;;;;;5034062;28;20455;-66
2023/12/10 04:47:16;;;;;;;13.20;2.63;;;8.60;98.00;;;;;;5033771;28;20461;-66
2023/12/10 04:49:43;;;;;;;11.10;2.17;;;8.60;98.00;;;;;;5034093;28;20488;-66
2023/12/10 04:52:10;;;;;;;2.80;1.80;;;8.60;98.00;;;;;;5034051;28;20456;-67
2023/12/10 04:54:37;;;;;;;4.63;1.60;;;8.60;98.00;;;;;;5033872;28;20476;-66
2023/12/10 04:57:05;;;;;;;10.23;2.07;;;8.60;98.00;;;;;;5033855;28;20454;-66
2023/12/10 04:59:32;;;;;;;7.20;2.20;;;8.60;98.00;;;;;;5033804;28;20515;-66
2023/12/10 05:02:02;;;;;;;7.67;2.00;;;8.60;98.00;;;;;;5033678;28;20450;-66
2023/12/10 05:04:29;;;;;;;5.70;1.90;;;8.70;98.00;;;;;;5033749;28;20462;-66
2023/12/10 05:06:57;;;;;;;11.83;2.23;;;8.70;98.00;;;;;;5033703;28;20454;-65
2023/12/10 05:09:24;;;;;;;3.77;1.90;;;8.70;98.00;;;;;;5033771;28;20465;-66
2023/12/10 05:11:51;;;;;;;4.50;1.90;;;8.70;98.00;;;;;;5033430;28;20951;-66
2023/12/10 05:14:21;;;;;;;11.33;2.27;;;8.70;98.00;;;;;;5033755;28;20453;-66
2023/12/10 05:16:48;;;;;;;8.53;2.20;;;8.80;98.00;;;;;;5033693;28;20443;-66
2023/12/10 05:19:18;;;;;;;10.40;2.20;;;8.80;98.00;;;;;;5032112;28;21062;-66
2023/12/10 05:21:46;;;;;;;6.07;1.97;;;8.80;98.00;;;;;;5033522;28;20458;-66
2023/12/10 05:24:13;;;;;;;5.43;1.80;;;8.80;98.00;;;;;;5033254;28;20814;-66
2023/12/10 05:26:40;;;;;;;5.47;2.03;;;8.80;98.00;;;;;;5032122;28;20460;-66
2023/12/10 05:29:07;;;;;;;4.10;1.93;;;8.80;98.00;;;;;;5032333;28;20461;-65
2023/12/10 05:31:34;;;;;;;11.10;2.13;;;8.80;98.00;;;;;;5032132;28;20490;-66
2023/12/10 05:34:02;;;;;;;6.40;2.03;;;8.80;98.00;;;;;;5033439;28;20459;-66
2023/12/10 05:36:30;;;;;;;5.20;2.00;;;8.80;98.00;;;;;;5033224;28;20455;-66
2023/12/10 05:38:58;;;;;;;5.70;1.90;;;8.80;98.00;;;;;;5033019;28;20466;-67
2023/12/10 05:41:26;;;;;;;5.43;1.60;;;8.80;98.00;;;;;;5032008;28;20972;-66
2023/12/10 05:43:53;;;;;;;7.13;1.77;;;8.80;98.00;;;;;;5015292;28;20464;-66
2023/12/10 05:46:21;;;;;;;10.23;1.97;;;8.80;98.00;;;;;;5032924;28;20460;-66
2023/12/10 05:48:48;;;;;;;7.53;1.93;;;8.90;98.00;;;;;;5033215;28;20795;-67
2023/12/10 05:51:15;;;;;;;4.03;2.10;;;8.90;98.00;;;;;;5031847;28;20489;-66
2023/12/10 05:53:44;;;;;;;4.40;1.87;;;8.90;98.00;;;;;;5032959;28;20460;-65
2023/12/10 05:56:11;;;;;;;9.73;2.23;;;8.90;98.00;;;;;;5032899;28;20457;-66
2023/12/10 05:58:39;;;;;;;5.53;2.07;;;8.90;98.00;;;;;;5031401;28;20459;-66
2023/12/10 06:01:06;;;;;;;8.80;2.17;;;8.90;98.00;;;;;;5032858;28;20488;-66
2023/12/10 06:03:33;;;;;;;5.33;1.57;;;8.90;98.00;;;;;;5032802;28;20800;-66
2023/12/10 06:06:01;;;;;;;4.80;2.20;;;8.90;98.00;;;;;;5032449;28;20463;-66
2023/12/10 06:08:28;;;;;;;14.40;2.23;;;8.90;98.00;;;;;;5031108;28;20451;-67
2023/12/10 06:10:57;;;;;;;6.93;1.80;;;8.80;98.00;;;;;;5031761;28;20493;-66
2023/12/10 06:13:24;;;;;;;8.40;1.63;;;8.80;98.00;;;;;;5031856;28;20456;-66
2023/12/10 06:15:51;;;;;;;7.00;2.00;;;8.80;98.00;;;;;;5031813;28;20446;-67
2023/12/10 06:18:18;;;;;;;10.63;1.93;;;8.80;98.00;;;;;;5032413;28;20977;-66
2023/12/10 06:20:45;;;;;;;5.63;1.63;;;8.70;98.00;;;;;;5031110;28;20456;-66
2023/12/10 06:23:12;;;;;;;9.33;2.00;;;8.80;98.00;;;;;;5032729;28;20449;-66
2023/12/10 06:25:41;;;;;;;6.03;1.80;;;8.80;98.00;;;;;;5030972;28;20478;-65
2023/12/10 06:28:10;;;;;;;4.47;1.80;;;8.80;98.00;;;;;;5032425;28;20446;-67
2023/12/10 06:30:38;;;;;;;11.37;2.10;;;8.80;98.00;;;;;;5032339;28;20489;-67
2023/12/10 06:33:05;;;;;;;7.50;1.43;;;8.80;98.00;;;;;;5031939;28;20461;-66
2023/12/10 06:35:32;;;;;;;3.70;1.70;;;8.80;98.00;;;;;;5030711;28;20451;-66
2023/12/10 06:37:59;;;;;;;11.57;1.93;;;8.80;98.00;;;;;;5031718;28;21104;-66
2023/12/10 06:40:26;;;;;;;4.40;1.83;;;8.90;98.00;;;;;;5031621;28;20468;-67
2023/12/10 06:42:54;;;;;;;7.60;1.90;;;8.80;98.00;;;;;;5031836;28;20461;-66
2023/12/10 06:45:22;;;;;;;7.63;2.13;;;8.80;98.00;;;;;;5032030;28;20465;-66
2023/12/10 06:47:49;;;;;;;6.73;1.73;;;8.80;98.00;;;;;;5031587;28;20460;-66
2023/12/10 06:50:17;;;;;;;4.90;1.87;;;8.80;98.00;;;;;;5031841;28;20489;-67
2023/12/10 06:52:44;;;;;;;5.90;1.70;;;8.80;98.00;;;;;;5031001;28;20456;-66
2023/12/10 06:55:12;;;;;;;3.87;1.67;;;8.90;98.00;;;;;;5031461;28;20455;-67
2023/12/10 06:57:40;;;;;;;7.90;2.23;;;8.80;98.00;;;;;;5031059;28;20457;-66
2023/12/10 07:00:09;;;;;;;18.43;2.00;;;8.80;98.00;;;;;;5031759;28;20454;-66
2023/12/10 07:02:37;;;;;;;2.43;1.70;;;8.90;98.00;;;;;;5031644;28;20505;-61
2023/12/10 07:05:05;;;;;;;2.97;1.60;;;8.90;98.00;;;;;;5031783;28;20495;-61
2023/12/10 07:07:32;;;;;;;3.70;2.00;;;8.90;98.00;;;;;;5031453;28;20461;-61
2023/12/10 07:10:00;;;;;;;6.77;1.90;;;8.90;98.00;;;;;;5031636;28;20459;-61
2023/12/10 07:12:27;;;;;;;12.67;1.90;;;8.90;98.00;;;;;;5031569;28;20453;-61
2023/12/10 07:14:54;;;;;;;5.83;1.90;;;8.90;98.00;;;;;;5031558;28;20924;-61
2023/12/10 07:17:21;;;;;;;5.90;1.80;;;8.90;98.00;;;;;;5031620;28;20446;-62
2023/12/10 07:19:49;;;;;;;4.50;1.70;;;9.00;98.00;;;;;;5031556;28;20446;-62
2023/12/10 07:22:17;;;;;;;2.80;1.53;;;8.90;98.00;;;;;;5031556;28;20975;-62
2023/12/10 07:24:44;;;;;;;8.40;1.83;;;8.90;98.00;;;;;;5031428;28;20480;-62
2023/12/10 07:27:11;;;;;;;5.20;2.00;;;8.90;98.00;;;;;;5031607;28;20814;-62
2023/12/10 07:29:39;;;;;;;3.70;1.50;;;8.80;98.00;;;;;;5031526;28;20788;-62
2023/12/10 07:32:07;;;;;;;11.33;2.83;;;8.80;98.00;;;;;;5030260;28;20494;-62
2023/12/10 07:34:34;;;;;;;4.77;1.83;;;8.70;98.00;;;;;;5031586;28;20468;-62
2023/12/10 07:37:02;;;;;;;4.50;1.57;;;8.70;98.00;;;;;;5031324;28;20481;-62
2023/12/10 07:39:31;;;;;;;7.37;1.80;;;8.70;98.00;;;;;;5031517;28;20450;-62
2023/12/10 07:41:58;;;;;;;6.63;1.50;;;8.70;98.00;;;;;;5031373;28;20482;-62
2023/12/10 07:44:26;;;;;;;5.33;1.90;;;8.70;98.00;;;;;;5031713;28;20492;-62
2023/12/10 07:46:53;;;;;;;7.23;1.90;;;8.70;98.00;;;;;;5031437;28;21145;-62
2023/12/10 07:49:20;;;;;;;12.13;2.60;;;8.70;98.00;;;;;;5031413;28;20469;-62
2023/12/10 07:51:47;;;;;;;13.63;2.33;;;8.60;98.00;;;;;;5031364;28;20493;-62
2023/12/10 07:54:15;;;;;;;3.10;1.57;;;8.60;98.00;;;;;;5031751;28;20453;-62
2023/12/10 07:56:43;;;;;;;12.00;1.93;;;8.60;98.00;;;;;;5035006;28;20461;-62
2023/12/10 07:59:10;;;;;;;4.33;2.10;;;8.50;98.00;;;;;;5034521;28;20788;-62
2023/12/10 08:01:44;;;;;;;2.73;1.60;;;8.50;98.00;;;;;;5035063;28;20453;-62
2023/12/10 08:04:11;;;;;;;9.97;2.03;;;8.40;98.00;;;;;;5035020;28;20465;-62
2023/12/10 08:06:39;;;;;;;5.37;1.60;;;8.40;98.00;;;;;;5035126;28;20809;-62
2023/12/10 08:09:06;;;;;;;9.60;2.10;;;8.50;98.00;;;;;;5034825;28;20454;-62
2023/12/10 08:11:35;;;;;;;6.03;2.00;;;8.40;98.00;;;;;;5034763;28;20520;-62
2023/12/10 08:14:02;;;;;;;11.73;1.97;;;8.50;98.00;;;;;;5034726;28;20460;-61
2023/12/10 08:16:29;;;;;;;6.43;1.97;;;8.60;98.00;;;;;;5034799;28;20519;-62
2023/12/10 08:18:57;;;;;;;2.40;1.63;;;8.60;98.00;;;;;;5034779;28;20768;-61
2023/12/10 08:21:24;;;;;;;4.17;1.70;;;8.60;98.00;;;;;;5034825;28;20464;-61
2023/12/10 08:23:52;;;;;;;3.77;1.50;;;8.70;98.00;;;;;;5034620;28;20460;-62
2023/12/10 08:26:19;;;;;;;3.57;1.97;;;8.60;98.00;;;;;;5034274;28;20452;-62
2023/12/10 08:28:48;;;;;;;8.17;1.80;;;8.70;98.00;;;;;;5034322;28;20881;-62
2023/12/10 08:31:15;;;;;;;4.50;1.63;;;8.70;98.00;;;;;;5034375;28;20512;-62
2023/12/10 08:33:44;;;;;;;2.73;1.60;;;8.70;98.00;;;;;;5016563;28;20450;-61
2023/12/10 08:36:11;;;;;;;5.57;1.70;;;8.70;98.00;;;;;;5034258;28;20804;-62
2023/12/10 08:38:39;;;;;;;2.80;1.50;;;8.70;98.00;;;;;;5033965;28;20465;-62
2023/12/10 08:41:06;;;;;;;4.00;1.73;;;8.70;98.00;;;;;;5034081;28;20460;-62
2023/12/10 08:43:34;;;;;;;10.30;2.00;;;8.60;98.00;;;;;;5034053;28;20468;-62
2023/12/10 08:46:03;;;;;;;7.77;2.10;;;8.60;98.00;;;;;;5032871;28;20991;-62
2023/12/10 08:48:31;;;;;;;10.90;2.50;;;8.70;98.00;;;;;;5034053;28;20453;-62
2023/12/10 08:50:58;;;;;;;4.67;1.73;;;8.70;98.00;;;;;;5033707;28;20537;-62
2023/12/10 08:53:25;;;;;;;12.37;1.90;;;8.70;98.00;;;;;;5033936;28;20453;-62
2023/12/10 08:55:52;;;;;;;8.13;2.10;;;8.80;98.00;;;;;;5033766;28;20458;-62
2023/12/10 08:58:19;;;;;;;6.77;2.43;;;8.90;98.00;;;;;;5033566;28;20462;-62
2023/12/10 09:00:46;;;;;;;4.53;1.77;;;9.00;98.00;;;;;;5033760;28;20458;-62
2023/12/10 09:03:16;;;;;;;2.50;1.60;;;8.90;98.00;;;;;;5033557;28;20460;-62
2023/12/10 09:05:43;;;;;;;9.07;1.90;;;9.00;98.00;;;;;;5033471;28;20497;-62
2023/12/10 09:08:11;;;;;;;2.93;1.60;;;9.00;98.00;;;;;;5033195;28;20444;-62
2023/12/10 09:13:06;;;;;;;6.83;1.87;;;9.10;98.00;;;;;;5011179;28;20552;-62
2023/12/10 09:15:33;;;;;;;3.37;1.60;;;9.20;98.00;;;;;;5013034;28;20451;-62
2023/12/10 09:18:01;;;;;;;3.50;1.50;;;9.30;98.00;;;;;;5012709;28;20841;-62
2023/12/10 09:20:29;;;;;;;7.77;1.90;;;9.40;98.00;;;;;;4995687;28;20461;-62
2023/12/10 09:22:56;;;;;;;5.20;2.10;;;9.40;98.00;;;;;;4995288;28;20457;-62
2023/12/10 09:25:23;;;;;;;5.20;1.50;;;9.50;98.00;;;;;;5013139;28;20801;-63
2023/12/10 09:27:50;;;;;;;7.03;1.70;;;9.60;98.00;;;;;;5012551;28;20451;-62
2023/12/10 09:30:18;;;;;;;7.17;1.67;;;9.60;98.00;;;;;;5012746;28;20507;-63
2023/12/10 09:32:45;;;;;;;6.70;1.90;;;9.70;98.00;;;;;;5012461;28;21001;-62
2023/12/10 09:35:12;;;;;;;5.43;2.23;;;9.70;98.00;;;;;;5012792;28;20517;-63
2023/12/10 09:37:41;;;;;;;3.20;1.50;;;9.70;98.00;;;;;;5012534;28;20450;-63
2023/12/10 09:40:09;;;;;;;7.97;1.90;;;9.60;98.00;;;;;;5012633;28;20459;-63
2023/12/10 09:42:37;;;;;;;3.83;1.83;;;9.60;98.00;;;;;;5012522;28;20453;-63
2023/12/10 09:45:06;;;;;;;7.30;2.17;;;9.50;98.00;;;;;;5012534;28;20459;-63
2023/12/10 09:47:36;;;;;;;8.07;1.80;;;9.40;98.00;;;;;;5012694;28;20447;-62
2023/12/10 09:50:04;;;;;;;6.17;1.80;;;9.40;98.00;;;;;;5010868;28;20451;-62
2023/12/10 09:52:32;;;;;;;4.33;1.63;;;9.50;98.00;;;;;;5012235;28;20506;-63
2023/12/10 09:55:01;;;;;;;4.33;1.50;;;9.40;98.00;;;;;;4994831;28;20452;-62
2023/12/10 09:57:38;;;;;;;6.90;1.93;;;9.40;98.00;;;;;;4992089;28;20935;-63
2023/12/10 10:00:06;;;;;;;7.63;2.43;;;9.50;98.00;;;;;;5011841;28;20460;-62
2023/12/10 10:02:34;;;;;;;3.80;1.57;;;9.60;98.00;;;;;;5012039;28;20453;-63
2023/12/10 10:05:02;;;;;;;5.27;2.13;;;9.60;98.00;;;;;;5011983;28;20452;-62
2023/12/10 10:07:30;;;;;;;4.60;1.70;;;9.50;98.00;;;;;;5012306;28;20554;-63
2023/12/10 10:09:57;;;;;;;6.00;2.30;;;9.50;98.00;;;;;;5012671;28;20454;-63
2023/12/10 10:12:29;;;;;;;3.73;1.77;;;9.60;98.00;;;;;;5011825;28;20495;-63
2023/12/10 10:14:58;;;;;;;3.43;1.67;;;9.70;98.00;;;;;;5012135;28;21290;-63
2023/12/10 10:17:27;;;;;;;7.03;2.23;;;9.70;98.00;;;;;;5010915;28;20440;-62
2023/12/10 10:19:55;;;;;;;5.97;1.90;;;9.70;98.00;;;;;;5010302;28;20456;-63
2023/12/10 10:22:24;;;;;;;6.40;2.00;;;9.70;98.00;;;;;;5011717;28;20955;-62
2023/12/10 10:24:52;;;;;;;3.00;1.50;;;9.70;98.00;;;;;;5011696;28;20886;-63
2023/12/10 10:27:19;;;;;;;4.70;1.83;;;9.70;98.00;;;;;;5011676;28;20459;-63
2023/12/10 10:29:53;;;;;;;2.57;1.60;;;9.60;98.00;;;;;;5011463;28;20451;-62
2023/12/10 10:32:21;;;;;;;8.13;1.67;;;9.50;98.00;;;;;;5011694;28;20489;-62
2023/12/10 10:34:50;;;;;;;5.40;2.27;;;9.50;98.00;;;;;;5010479;28;20459;-67
2023/12/10 10:37:18;;;;;;;8.67;1.80;;;9.60;98.00;;;;;;5010343;28;20459;-66
2023/12/10 10:39:46;;;;;;;3.57;1.70;;;10.00;98.00;;;;;;5011535;28;20458;-67
2023/12/10 10:42:14;;;;;;;10.30;1.97;;;10.30;98.00;;;;;;5011525;28;20823;-66
2023/12/10 10:44:42;;;;;;;2.83;1.40;;;10.50;98.00;;;;;;5011526;28;20941;-63
2023/12/10 10:47:11;;;;;;;5.07;1.73;;;10.30;98.00;;;;;;5010392;28;20509;-63
2023/12/10 10:49:42;;;;;;;3.57;1.40;;;10.20;98.00;;;;;;5011504;28;20455;-63
2023/12/10 10:52:14;;;;;;;3.23;1.57;;;10.00;98.00;;;;;;5011176;28;20492;-64
2023/12/10 10:54:42;;;;;;;2.90;1.40;;;9.80;98.00;;;;;;5011402;28;20894;-63
2023/12/10 10:57:09;;;;;;;4.40;2.40;;;9.80;98.00;;;;;;5010179;28;20457;-63
2023/12/10 10:59:36;;;;;;;9.17;2.57;;;9.80;98.00;;;;;;5011421;28;20835;-63
2023/12/10 11:02:06;;;;;;;9.63;1.83;;;9.80;98.00;;;;;;5010250;28;20814;-63
2023/12/10 11:04:36;;;;;;;3.40;1.60;;;9.80;98.00;;;;;;5011376;28;20570;-64
2023/12/10 11:07:03;;;;;;;3.20;1.43;;;9.80;98.00;;;;;;5010733;28;20457;-63
2023/12/10 11:09:31;;;;;;;2.97;1.70;;;9.80;98.00;;;;;;5011391;28;20825;-63
2023/12/10 11:11:58;;;;;;;3.67;1.80;;;9.90;98.00;;;;;;5010924;28;21005;-63
2023/12/10 11:14:25;;;;;;;6.47;2.00;;;9.80;98.00;;;;;;5010600;28;20474;-63
2023/12/10 11:16:59;;;;;;;7.93;1.67;;;9.80;98.00;;;;;;5011183;28;20447;-63
2023/12/10 11:19:28;;;;;;;3.10;1.60;;;9.80;98.00;;;;;;5011194;28;20801;-63
2023/12/10 11:21:57;;;;;;;3.40;1.43;;;9.70;98.00;;;;;;5010859;28;20467;-63
2023/12/10 11:24:24;;;;;;;3.50;1.80;;;9.80;98.00;;;;;;5011204;28;20830;-63
2023/12/10 11:26:52;;;;;;;4.17;1.53;;;9.80;98.00;;;;;;5011057;28;20455;-63
2023/12/10 11:29:19;;;;;;;6.40;1.70;;;9.80;98.00;;;;;;5011434;28;20459;-63
2023/12/10 11:31:46;;;;;;;6.43;2.07;;;9.80;98.00;;;;;;5014796;28;20485;-63
2023/12/10 11:34:13;;;;;;;6.90;1.90;;;9.80;98.00;;;;;;5014938;28;20974;-63
2023/12/10 11:36:46;;;;;;;4.03;1.77;;;9.70;98.00;;;;;;5014689;28;20455;-63
2023/12/10 11:39:15;;;;;;;5.10;1.43;;;9.70;98.00;;;;;;5014994;28;20512;-63
2023/12/10 11:41:43;;;;;;;5.47;1.60;;;9.70;98.00;;;;;;5013935;28;20960;-63
2023/12/10 11:44:11;;;;;;;3.77;1.50;;;9.80;98.00;;;;;;5013768;28;20486;-63
2023/12/10 11:46:39;;;;;;;3.97;1.70;;;9.80;98.00;;;;;;5014572;28;20459;-63
2023/12/10 11:49:09;;;;;;;4.60;1.70;;;9.90;98.00;;;;;;5015274;28;20458;-63
2023/12/10 11:51:40;;;;;;;4.83;1.60;;;9.90;98.00;;;;;;5015388;28;20544;-63
2023/12/10 11:54:08;;;;;;;6.90;1.90;;;10.00;98.00;;;;;;5015747;28;20491;-63
2023/12/10 11:56:37;;;;;;;9.90;2.00;;;9.90;98.00;;;;;;5015312;28;20460;-63
2023/12/10 11:59:07;;;;;;;5.97;1.70;;;9.90;98.00;;;;;;5015241;28;20508;-63
2023/12/10 12:01:37;;;;;;;5.30;1.87;;;9.90;98.00;;;;;;5015079;28;20451;-63
2023/12/10 12:04:05;;;;;;;5.33;2.00;;;9.90;98.00;;;;;;5014959;28;20472;-63
2023/12/10 12:06:43;;;;;;;10.80;2.23;;;9.90;98.00;;;;;;5015170;28;20451;-63
2023/12/10 12:09:15;;;;;;;9.40;2.00;;;9.90;98.00;;;;;;5015008;28;20459;-63
2023/12/10 12:11:43;;;;;;;5.80;1.83;;;9.90;98.00;;;;;;5014336;28;20459;-63
2023/12/10 12:14:15;;;;;;;6.67;1.70;;;10.00;98.00;;;;;;4996999;28;20456;-63
2023/12/10 12:16:42;;;;;;;6.33;1.73;;;10.00;98.00;;;;;;5011520;28;20456;-63
2023/12/10 12:19:09;;;;;;;3.67;1.70;;;10.10;98.00;;;;;;4998745;28;20451;-64
2023/12/10 12:21:37;;;;;;;6.97;1.90;;;10.10;98.00;;;;;;5017485;28;20446;-63
2023/12/10 12:24:04;;;;;;;8.60;2.00;;;10.10;98.00;;;;;;5014694;28;20463;-63
2023/12/10 12:26:31;;;;;;;2.23;1.60;;;10.10;98.00;;;;;;5014247;28;20462;-63
2023/12/10 12:29:00;;;;;;;5.43;1.70;;;10.10;98.00;;;;;;5014287;28;20456;-63
2023/12/10 12:31:27;;;;;;;3.63;1.70;;;10.20;98.00;;;;;;5014454;28;20469;-63
2023/12/10 12:33:54;;;;;;;6.93;1.70;;;10.20;98.00;;;;;;5014448;28;20835;-63
2023/12/10 12:36:21;;;;;;;5.07;2.00;;;10.20;98.00;;;;;;5013116;28;20445;-63
2023/12/10 12:38:48;;;;;;;7.53;1.80;;;10.20;98.00;;;;;;5013987;28;20973;-63
2023/12/10 12:41:16;;;;;;;5.63;1.73;;;10.20;98.00;;;;;;5014090;28;21072;-64
2023/12/10 12:43:43;;;;;;;3.60;1.80;;;10.20;98.00;;;;;;5014298;28;20977;-63
2023/12/10 12:46:14;;;;;;;4.73;1.60;;;10.30;98.00;;;;;;5014483;28;20818;-63
2023/12/10 12:48:41;;;;;;;2.87;1.50;;;10.20;98.00;;;;;;5014221;28;20487;-63
2023/12/10 12:51:08;;;;;;;2.43;1.50;;;10.30;98.00;;;;;;5013849;28;20455;-63
2023/12/10 12:53:35;;;;;;;7.80;1.60;;;10.40;98.00;;;;;;5012755;28;20491;-63
2023/12/10 12:56:03;;;;;;;4.00;1.63;;;10.40;98.00;;;;;;5014258;28;20938;-63
2023/12/10 12:58:31;;;;;;;3.73;1.93;;;10.40;98.00;;;;;;5028224;28;20454;-63
2023/12/10 13:00:59;;;;;;;7.30;1.90;;;10.40;98.00;;;;;;5014091;28;20491;-63